LFRN/RNS METAR and TAF weather

Enter ICAO airport designator
Station Type Date Time Source
LFRN METAR 2019/06/18 12:30 UTC NOAA

LFRN 181230Z AUTO 05008KT 020V090 CAVOK 24/17 Q1009 TEMPO 4000 SHRA BKN060CB


Station Type Date Time Source
LFRN Decoded METAR 2019/06/18 12:30 UTC NOAA

Rennes, France (LFRN) 48-04N 001-44W 37M
Jun 18, 2019 - 08:30 AM EDT / 2019.06.18 1230 UTC
Wind: from the NE (050 degrees) at 9 MPH (8 KT) (direction variable):0
Visibility: greater than 7 mile(s):0
Weather: Cumulonimbus clouds observed
Temperature: 75 F (24 C)
Dew Point: 62 F (17 C)
Relative Humidity: 64%
Pressure (altimeter): 29.80 in. Hg (1009 hPa)
ob: LFRN 181230Z AUTO 05008KT 020V090 CAVOK 24/17 Q1009 TEMPO 4000 SHRA BKN060CB
cycle: 12

Station Type Date Time Source
LFRN TAF 2019/06/18 12:21 UTC NOAA

TAF LFRN 181100Z 1812/1912 11008KT CAVOK
TEMPO 1812/1818 4000 SHRA BKN060CB PROB40
TEMPO 1815/1818 VRB15G30KT 3000 TSRA PROB30
TEMPO 1815/1818 TSRAGR PROB40
TEMPO 1823/1903 4000 SHRA BKN080TCU
BECMG 1903/1905 21010KT BKN020
TEMPO 1904/1908 BKN013
TEMPO 1909/1912 5000 SHRA BKN020TCU

Example: see airport list